Time;durP1;ratioP1;P1;durP2;ratioP2;P2;SDS_P1;SDS_P2;PMS_P1;PMS_P2;Temp;Humidity;BMP_temperature;BMP_pressure;BME280_temperature;BME280_humidity;BME280_pressure;Samples;Min_cycle;Max_cycle;Signal;HPM_P1;HPM_P2
2023/05/28 00:02:19;;;;;;;;;8.00;7.33;;;;;20.27;44.77;101256.38;5031135;28;45454;-62
2023/05/28 00:04:44;;;;;;;;;5.00;5.00;;;;;20.23;44.78;101257.31;5028906;28;45172;-62
2023/05/28 00:07:10;;;;;;;;;8.67;6.67;;;;;20.06;45.31;101224.81;5030783;28;46266;-63
2023/05/28 00:09:41;;;;;;;;;9.00;7.33;;;;;20.17;45.10;101250.09;5031784;28;45257;-62
2023/05/28 00:12:07;;;;;;;;;11.00;8.67;;;;;19.99;45.26;101218.53;5032130;28;45294;-62
2023/05/28 00:14:33;;;;;;;;;6.67;5.00;;;;;20.13;45.33;101245.59;5032267;28;45149;-65
2023/05/28 00:16:58;;;;;;;;;7.00;7.00;;;;;19.96;45.65;101229.38;5031617;28;45039;-63
2023/05/28 00:19:24;;;;;;;;;5.33;5.33;;;;;20.07;45.79;101243.81;5029928;28;45048;-63
2023/05/28 00:21:49;;;;;;;;;10.33;8.67;;;;;20.00;46.06;101230.31;4993830;28;45117;-61
2023/05/28 00:24:15;;;;;;;;;7.33;7.33;;;;;19.98;46.29;101235.72;5031504;28;44933;-61
2023/05/28 00:26:40;;;;;;;;;7.67;6.00;;;;;19.93;46.20;101232.13;5031170;28;46101;-61
2023/05/28 00:29:06;;;;;;;;;10.00;8.00;;;;;19.98;46.67;101238.44;5030512;28;45286;-62
2023/05/28 00:31:31;;;;;;;;;7.67;7.33;;;;;19.92;46.50;101230.31;5031557;28;45060;-61
2023/05/28 00:33:56;;;;;;;;;11.67;10.00;;;;;19.86;46.84;101224.91;5022784;28;45337;-61
2023/05/28 00:36:22;;;;;;;;;9.33;6.00;;;;;19.89;47.00;101236.66;5024159;28;45465;-62
2023/05/28 00:38:48;;;;;;;;;9.33;6.33;;;;;19.75;47.17;101219.56;5012234;28;45065;-60
2023/05/28 00:41:22;;;;;;;;;7.00;6.00;;;;;19.82;47.23;101247.56;5031038;28;45293;-62
2023/05/28 00:43:48;;;;;;;;;14.00;13.67;;;;;19.78;47.41;101237.59;5015698;28;45324;-62
2023/05/28 00:46:18;;;;;;;;;6.00;5.67;;;;;19.75;47.58;101243.97;5033755;28;45605;-62
2023/05/28 00:48:44;;;;;;;;;11.33;10.00;;;;;19.64;47.99;101230.41;5032990;28;45134;-61
2023/05/28 00:51:10;;;;;;;;;7.67;7.67;;;;;19.67;48.00;101243.06;5033454;28;45267;-62
2023/05/28 00:53:35;;;;;;;;;9.33;9.33;;;;;19.52;48.03;101211.47;5031516;28;44956;-62
2023/05/28 00:56:02;;;;;;;;;14.00;11.67;;;;;19.63;48.10;101244.88;5033774;28;45379;-62
2023/05/28 00:58:28;;;;;;;;;7.67;7.67;;;;;19.58;48.30;101233.13;5011769;28;45115;-61
2023/05/28 01:00:53;;;;;;;;;10.00;9.00;;;;;19.55;48.08;101229.53;5014631;28;44874;-62
2023/05/28 01:03:19;;;;;;;;;10.67;9.67;;;;;19.43;48.53;101206.06;5014075;28;45272;-61
2023/05/28 01:05:45;;;;;;;;;19.00;17.00;;;;;19.49;48.28;101223.22;5013954;28;45754;-62
2023/05/28 01:08:11;;;;;;;;;15.50;12.00;;;;;19.50;48.73;101233.16;4996142;28;45117;-61
2023/05/28 01:10:37;;;;;;;;;13.50;13.00;;;;;19.55;49.07;101244.00;5014792;28;45425;-61
2023/05/28 01:13:07;;;;;;;;;13.67;10.67;;;;;19.49;49.09;101242.19;5013302;28;45329;-62
2023/05/28 01:15:33;;;;;;;;;12.67;10.67;;;;;19.46;49.17;101246.72;5024552;28;45536;-61
2023/05/28 01:18:00;;;;;;;;;10.67;8.00;;;;;19.44;49.55;101246.72;5031423;28;46316;-64
2023/05/28 01:20:28;;;;;;;;;14.67;9.67;;;;;19.36;49.32;101237.69;5032909;28;44927;-61
2023/05/28 01:23:05;;;;;;;;;8.67;8.67;;;;;19.36;49.93;101243.13;5032489;28;45152;-61
2023/05/28 01:25:32;;;;;;;;;11.33;11.33;;;;;19.28;49.86;101245.84;5024301;28;46806;-62
2023/05/28 01:28:01;;;;;;;;;9.33;9.33;;;;;19.25;50.10;101251.25;5011566;28;45117;-61
2023/05/28 01:30:26;;;;;;;;;11.33;9.33;;;;;19.21;50.59;101251.28;5010425;28;45521;-62
2023/05/28 01:32:55;;;;;;;;;15.67;10.33;;;;;19.12;50.35;101254.88;5030722;28;45414;-61
2023/05/28 01:35:20;;;;;;;;;12.75;11.25;;;;;18.96;50.69;101235.94;5012400;28;45856;-61
2023/05/28 01:37:52;;;;;;;;;18.00;14.00;;;;;19.01;50.91;101256.72;5031371;28;45387;-61
2023/05/28 01:40:18;;;;;;;;;20.75;13.75;;;;;18.96;50.72;101252.19;5030964;28;44939;-61
2023/05/28 01:42:46;;;;;;;;;14.25;10.75;;;;;18.89;51.01;101246.75;5030631;28;45431;-64
2023/05/28 01:45:12;;;;;;;;;15.00;13.75;;;;;18.96;51.14;101260.31;5032668;28;45413;-61
2023/05/28 01:47:38;;;;;;;;;18.50;16.00;;;;;18.99;51.09;101266.63;5028753;28;45531;-61
2023/05/28 01:50:05;;;;;;;;;21.25;14.50;;;;;18.90;51.09;101246.75;5029576;28;45285;-60
2023/05/28 01:52:30;;;;;;;;;20.50;15.50;;;;;18.98;51.25;101260.31;5032461;28;45208;-62
2023/05/28 01:54:55;;;;;;;;;19.25;13.75;;;;;18.91;51.16;101248.59;5033182;28;45941;-61
2023/05/28 01:57:21;;;;;;;;;11.33;11.33;;;;;18.90;50.99;101244.06;5030848;28;45004;-61
2023/05/28 01:59:46;;;;;;;;;17.25;15.00;;;;;18.85;51.00;101226.91;5021469;28;44914;-61
2023/05/28 02:02:11;;;;;;;;;11.67;10.00;;;;;18.90;51.18;101244.06;5015954;28;44947;-60
2023/05/28 02:04:37;;;;;;;;;18.25;12.50;;;;;18.77;51.41;101218.75;5032319;28;45767;-61
2023/05/28 02:07:02;;;;;;;;;13.67;11.00;;;;;18.86;51.39;101241.34;5031868;28;44923;-61
2023/05/28 02:09:28;;;;;;;;;12.00;8.67;;;;;18.79;51.23;101235.00;5041388;22;46142;-64
2023/05/28 02:11:53;;;;;;;;;12.33;9.33;;;;;18.92;51.29;101249.47;5013034;28;45711;-69
2023/05/28 02:14:18;;;;;;;;;20.67;13.33;;;;;18.91;51.43;101253.09;5030523;28;44997;-66
2023/05/28 02:16:52;;;;;;;;;17.25;11.50;;;;;18.61;51.59;101203.44;5016158;28;45263;-64
2023/05/28 02:19:18;;;;;;;;;19.50;12.25;;;;;18.81;51.55;101251.25;5011865;28;45141;-64
2023/05/28 02:21:44;;;;;;;;;13.67;10.00;;;;;18.78;51.66;101266.59;5011297;28;45018;-63
2023/05/28 02:24:09;;;;;;;;;19.67;12.33;;;;;18.76;51.79;101268.41;4998279;28;45909;-67
2023/05/28 02:26:35;;;;;;;;;14.33;10.00;;;;;18.70;51.53;101260.25;4997161;28;45454;-71
2023/05/28 02:29:00;;;;;;;;;13.33;11.67;;;;;18.75;51.80;101262.97;5002032;28;45681;-67
2023/05/28 02:31:26;;;;;;;;;11.67;10.00;;;;;18.68;51.51;101253.06;5011696;28;44983;-64
2023/05/28 02:33:51;;;;;;;;;12.75;7.50;;;;;18.65;51.73;101250.34;5008234;28;46550;-69
2023/05/28 02:36:16;;;;;;;;;17.00;12.25;;;;;18.59;51.84;101244.03;5004812;28;45443;-64
2023/05/28 02:38:42;;;;;;;;;9.75;9.75;;;;;18.68;51.85;101272.91;4998506;28;45583;-63
2023/05/28 02:41:09;;;;;;;;;9.25;8.00;;;;;18.67;52.06;101259.38;5015948;28;45312;-65
2023/05/28 02:43:34;;;;;;;;;14.00;10.25;;;;;18.66;52.12;101265.66;5032349;28;45641;-64
2023/05/28 02:46:00;;;;;;;;;13.67;11.33;;;;;18.48;52.00;101240.41;5032185;28;44948;-64
2023/05/28 02:48:26;;;;;;;;;16.00;9.50;;;;;18.61;52.02;101260.28;5032373;28;45029;-67
2023/05/28 02:50:51;;;;;;;;;16.75;11.75;;;;;18.66;51.96;101268.38;5022419;28;45097;-66
2023/05/28 02:53:19;;;;;;;;;12.50;10.50;;;;;18.65;52.14;101267.47;5011713;28;44965;-69
2023/05/28 02:55:45;;;;;;;;;11.00;11.00;;;;;18.61;51.90;101257.56;5012442;28;45238;-64
2023/05/28 02:58:10;;;;;;;;;14.00;11.33;;;;;18.52;52.43;101254.84;5012384;28;45125;-68
2023/05/28 03:00:35;;;;;;;;;17.75;13.50;;;;;18.37;52.13;101232.25;5012337;28;45124;-64
2023/05/28 03:03:01;;;;;;;;;17.67;10.33;;;;;18.53;52.41;101253.94;5011325;28;45300;-63
2023/05/28 03:05:27;;;;;;;;;11.67;10.00;;;;;18.48;52.52;101251.22;5011572;28;44982;-63
2023/05/28 03:07:52;;;;;;;;;14.25;12.50;;;;;18.54;52.13;101269.25;5011497;28;45234;-62
2023/05/28 03:10:17;;;;;;;;;20.00;17.25;;;;;18.46;52.35;101249.41;5011618;28;45220;-64
2023/05/28 03:12:43;;;;;;;;;11.75;9.50;;;;;18.49;52.45;101265.66;5012520;28;45315;-66
2023/05/28 03:15:09;;;;;;;;;11.00;9.75;;;;;18.49;52.38;101258.41;5004245;28;45269;-69
2023/05/28 03:17:34;;;;;;;;;16.33;13.33;;;;;18.15;52.01;101197.94;4996991;28;45258;-62
2023/05/28 03:19:59;;;;;;;;;11.00;11.00;;;;;18.35;52.21;101242.19;5000024;28;45431;-64
2023/05/28 03:22:25;;;;;;;;;12.33;10.00;;;;;18.42;52.16;101248.50;5013086;28;45915;-64
2023/05/28 03:24:50;;;;;;;;;9.67;8.33;;;;;18.51;52.42;101258.44;5024366;28;45080;-63
2023/05/28 03:27:16;;;;;;;;;20.50;14.25;;;;;18.49;52.31;101250.31;5004288;28;45371;-67
2023/05/28 03:29:41;;;;;;;;;11.67;10.00;;;;;18.41;52.26;101249.38;5013002;28;45271;-68
2023/05/28 03:32:06;;;;;;;;;9.33;9.33;;;;;18.39;52.31;101246.69;5009270;28;51175;-65
2023/05/28 03:34:33;;;;;;;;;10.67;10.67;;;;;18.40;52.30;101242.19;5019135;28;44953;-67
2023/05/28 03:36:59;;;;;;;;;16.50;10.00;;;;;18.45;52.40;101253.03;5022065;28;45192;-71
2023/05/28 03:39:24;;;;;;;;;13.33;10.33;;;;;18.34;52.46;101239.47;5018999;28;45119;-72
2023/05/28 03:41:49;;;;;;;;;14.75;12.25;;;;;18.43;52.70;101258.44;5001620;28;46400;-74
2023/05/28 03:44:17;;;;;;;;;12.00;10.00;;;;;18.11;52.47;101199.72;5010625;28;45447;-72
2023/05/28 03:46:42;;;;;;;;;12.50;12.50;;;;;18.38;52.14;101253.00;5006515;28;45314;-75
2023/05/28 03:49:08;;;;;;;;;18.50;12.25;;;;;18.38;52.52;101254.81;5023660;28;45382;-72
2023/05/28 03:51:33;;;;;;;;;16.75;12.25;;;;;18.28;52.57;101252.97;5028238;28;45817;-69
2023/05/28 03:53:58;;;;;;;;;14.25;11.25;;;;;18.20;52.94;101256.56;5028773;28;45418;-63
2023/05/28 03:56:24;;;;;;;;;16.25;12.50;;;;;18.05;53.21;101235.78;5020361;28;45497;-62
2023/05/28 03:58:49;;;;;;;;;14.50;13.00;;;;;18.14;53.11;101256.53;4993071;28;45195;-64
2023/05/28 04:01:15;;;;;;;;;18.75;12.00;;;;;18.14;53.46;101255.63;5011969;28;45428;-64
2023/05/28 04:03:40;;;;;;;;;17.00;12.50;;;;;18.11;53.24;101261.03;5018929;28;45138;-68
2023/05/28 04:06:08;;;;;;;;;12.75;10.50;;;;;18.03;53.01;101245.69;5008016;28;45222;-69
2023/05/28 04:08:33;;;;;;;;;12.50;11.25;;;;;18.14;52.98;101259.25;5020455;28;45280;-62
2023/05/28 04:10:59;;;;;;;;;17.25;13.00;;;;;18.10;53.38;101257.44;5031577;28;45978;-68
2023/05/28 04:13:24;;;;;;;;;20.50;13.00;;;;;18.04;53.46;101260.13;5017113;28;46300;-69
2023/05/28 04:15:50;;;;;;;;;12.75;11.00;;;;;18.08;53.29;101261.91;5012281;28;44994;-71
2023/05/28 04:18:15;;;;;;;;;17.00;11.75;;;;;18.04;53.44;101261.00;5014859;28;44919;-70
2023/05/28 04:20:41;;;;;;;;;18.00;13.00;;;;;17.97;53.47;101248.38;5025889;28;45660;-65
2023/05/28 04:23:07;;;;;;;;;11.75;11.75;;;;;18.03;53.45;101252.88;5022207;28;45511;-67
2023/05/28 04:25:32;;;;;;;;;13.75;11.25;;;;;17.98;53.45;101252.91;5003481;28;45593;-69
2023/05/28 04:28:00;;;;;;;;;15.75;14.00;;;;;17.99;53.54;101268.19;4997200;28;45307;-69
2023/05/28 04:30:26;;;;;;;;;23.50;17.75;;;;;17.98;53.22;101277.22;5029739;28;46172;-66
2023/05/28 04:32:51;;;;;;;;;14.75;11.75;;;;;17.94;53.88;101272.69;5021939;28;45464;-66
2023/05/28 04:35:17;;;;;;;;;14.25;14.25;;;;;17.91;53.92;101277.19;5003090;28;45641;-65
2023/05/28 04:37:44;;;;;;;;;17.50;14.25;;;;;17.92;53.87;101276.25;5013228;28;45412;-68
2023/05/28 04:40:13;;;;;;;;;13.25;11.50;;;;;17.94;53.65;101282.59;5012765;28;45434;-70
2023/05/28 04:42:41;;;;;;;;;10.25;9.25;;;;;17.93;53.67;101281.69;5012229;28;45126;-66
2023/05/28 04:45:10;;;;;;;;;18.75;14.00;;;;;17.97;53.61;101280.81;5012595;28;45571;-70
2023/05/28 04:47:36;;;;;;;;;23.00;9.25;;;;;17.95;53.77;101285.31;5014300;28;45139;-64
2023/05/28 04:50:04;;;;;;;;;14.75;11.25;;;;;17.85;53.84;101265.41;4995809;28;46408;-67
2023/05/28 04:52:31;;;;;;;;;16.00;12.75;;;;;17.90;53.91;101278.06;5014830;28;45157;-68
2023/05/28 04:54:57;;;;;;;;;18.50;14.00;;;;;17.95;53.22;101290.72;5014513;28;45267;-64
2023/05/28 04:57:22;;;;;;;;;15.25;13.00;;;;;17.94;53.76;101296.13;5014735;28;45121;-66
2023/05/28 04:59:48;;;;;;;;;16.25;13.50;;;;;17.80;53.15;101267.19;5014556;28;44975;-63
2023/05/28 05:02:16;;;;;;;;;20.50;15.50;;;;;17.81;53.60;101284.31;5013572;28;45141;-65
2023/05/28 05:04:42;;;;;;;;;15.50;14.50;;;;;17.77;53.94;101287.88;5014102;28;45070;-62
2023/05/28 05:07:07;;;;;;;;;18.50;12.50;;;;;17.75;53.85;101289.66;4996420;28;45885;-67
2023/05/28 05:09:32;;;;;;;;;17.00;12.00;;;;;17.70;53.92;101281.53;5013746;28;45105;-70
2023/05/28 05:11:57;;;;;;;;;13.75;11.75;;;;;17.64;54.19;101274.31;5012779;28;50680;-63
2023/05/28 05:14:23;;;;;;;;;15.75;13.50;;;;;17.40;54.11;101236.34;5013537;28;45248;-63
2023/05/28 05:16:48;;;;;;;;;16.50;12.25;;;;;17.44;54.78;101241.78;5014303;28;45196;-65
2023/05/28 05:19:13;;;;;;;;;19.50;13.75;;;;;17.65;54.30;101277.91;4994127;28;47696;-63
2023/05/28 05:21:39;;;;;;;;;13.75;12.25;;;;;17.60;54.01;101263.47;5012053;28;45168;-64
2023/05/28 05:24:04;;;;;;;;;13.50;11.00;;;;;17.80;53.78;101283.41;5024056;28;45215;-61
2023/05/28 05:26:30;;;;;;;;;15.50;14.50;;;;;17.75;53.71;101276.16;5034824;28;44963;-66
2023/05/28 05:28:55;;;;;;;;;21.75;16.25;;;;;17.84;53.80;101290.63;5034600;28;45624;-64
2023/05/28 05:31:21;;;;;;;;;19.50;14.50;;;;;17.85;53.97;101292.44;5034470;28;45077;-63
2023/05/28 05:33:46;;;;;;;;;19.00;14.75;;;;;17.82;54.05;101286.13;5031918;28;45373;-68
2023/05/28 05:36:11;;;;;;;;;17.75;14.00;;;;;17.91;53.77;101291.59;5032750;28;45006;-71
2023/05/28 05:38:37;;;;;;;;;12.50;11.00;;;;;17.91;53.38;101290.69;5032608;28;45360;-71
2023/05/28 05:41:02;;;;;;;;;21.25;13.75;;;;;17.92;53.34;101295.19;5031535;28;45326;-65
2023/05/28 05:43:28;;;;;;;;;16.50;14.50;;;;;17.86;53.35;101277.13;5012884;28;45056;-68
2023/05/28 05:45:53;;;;;;;;;17.75;13.75;;;;;18.01;52.96;101301.53;5012711;28;44955;-67
2023/05/28 05:48:19;;;;;;;;;11.50;11.00;;;;;17.95;53.27;101285.31;5011794;28;45555;-67
2023/05/28 05:50:54;;;;;;;;;19.00;14.00;;;;;18.06;53.20;101301.56;5022633;28;45265;-66
2023/05/28 05:53:20;;;;;;;;;12.75;11.00;;;;;18.09;53.12;101301.59;5030798;28;45285;-65
2023/05/28 05:55:46;;;;;;;;;18.50;14.50;;;;;18.12;52.69;101306.13;5033588;28;45199;-68
2023/05/28 05:58:11;;;;;;;;;14.75;10.75;;;;;18.08;53.02;101294.34;5033213;28;51764;-68
2023/05/28 06:00:37;;;;;;;;;18.50;14.50;;;;;18.17;53.22;101305.22;5015958;28;45298;-66
2023/05/28 06:03:03;;;;;;;;;19.50;14.00;;;;;18.22;52.79;101305.25;5032504;28;45057;-66
2023/05/28 06:05:28;;;;;;;;;14.25;13.00;;;;;18.16;52.74;101291.69;5015469;28;45180;-69
2023/05/28 06:07:53;;;;;;;;;17.75;13.75;;;;;18.26;52.68;101298.03;5025062;28;46287;-71
2023/05/28 06:10:20;;;;;;;;;12.50;12.50;;;;;17.97;52.69;101247.47;5033244;28;44953;-67
2023/05/28 06:12:46;;;;;;;;;15.25;13.75;;;;;18.23;52.60;101274.59;5024883;28;45445;-69
2023/05/28 06:15:11;;;;;;;;;19.00;14.00;;;;;18.33;52.28;101295.38;5027851;28;45756;-66
2023/05/28 06:17:37;;;;;;;;;17.75;13.75;;;;;18.39;52.46;101295.38;5012464;28;45530;-67
2023/05/28 06:20:04;;;;;;;;;11.50;11.00;;;;;18.40;52.25;101288.19;5018148;28;45300;-67
2023/05/28 06:22:30;;;;;;;;;12.75;12.25;;;;;18.46;52.16;101281.88;5018667;28;45065;-65
2023/05/28 06:24:56;;;;;;;;;15.00;12.25;;;;;18.48;51.92;101286.41;5017885;28;45368;-65
2023/05/28 06:27:22;;;;;;;;;16.00;12.75;;;;;18.60;51.67;101299.94;5023385;28;46134;-64
2023/05/28 06:29:50;;;;;;;;;15.50;13.50;;;;;18.55;51.57;101280.09;5004870;28;45317;-64
2023/05/28 06:32:16;;;;;;;;;11.50;10.00;;;;;18.70;51.09;101302.69;5015491;28;53501;-70
2023/05/28 06:34:41;;;;;;;;;21.00;16.25;;;;;18.57;51.51;101275.56;5029805;28;47042;-65
2023/05/28 06:37:07;;;;;;;;;18.75;14.00;;;;;18.70;51.02;101297.25;5030270;28;45731;-66
2023/05/28 06:39:33;;;;;;;;;12.67;10.33;;;;;18.73;51.13;101290.03;5008177;28;45380;-73
2023/05/28 06:41:58;;;;;;;;;17.00;12.50;;;;;18.68;51.23;101272.00;5002630;28;45265;-68
2023/05/28 06:44:24;;;;;;;;;19.75;15.50;;;;;18.81;51.26;101291.84;5015566;28;45540;-66
2023/05/28 06:46:49;;;;;;;;;15.00;12.50;;;;;18.71;50.93;101274.69;5006455;28;47572;-70
2023/05/28 06:49:14;;;;;;;;;17.25;15.25;;;;;18.84;51.10;101290.09;5026346;28;45086;-67
2023/05/28 06:51:40;;;;;;;;;19.50;15.00;;;;;18.93;50.80;101300.94;5031481;28;45542;-65
2023/05/28 06:54:05;;;;;;;;;16.50;15.50;;;;;19.00;50.63;101298.22;5032564;28;45226;-63
2023/05/28 06:56:31;;;;;;;;;21.00;16.00;;;;;18.95;50.54;101274.75;5016448;28;45907;-72
2023/05/28 06:58:56;;;;;;;;;15.50;12.25;;;;;18.84;50.40;101240.44;5012944;28;45144;-72
2023/05/28 07:01:21;;;;;;;;;19.00;15.25;;;;;19.12;49.93;101282.91;5012638;28;44936;-65
2023/05/28 07:03:46;;;;;;;;;17.00;12.33;;;;;19.22;49.73;101289.22;5012060;28;45219;-63
2023/05/28 07:06:12;;;;;;;;;14.50;13.00;;;;;19.24;49.42;101286.50;5017639;28;45251;-65
2023/05/28 07:08:44;;;;;;;;;20.25;16.00;;;;;19.25;49.56;101281.06;5014555;28;45321;-69
2023/05/28 07:11:09;;;;;;;;;19.67;14.00;;;;;19.38;49.26;101292.78;5026790;28;45755;-62
2023/05/28 07:13:35;;;;;;;;;14.67;12.33;;;;;19.47;49.40;101294.59;5014802;28;45422;-64
2023/05/28 07:16:00;;;;;;;;;13.33;12.00;;;;;19.55;49.38;101291.84;5011888;28;46001;-67
2023/05/28 07:18:26;;;;;;;;;12.67;11.33;;;;;19.54;49.14;101282.84;5012512;28;45045;-66
2023/05/28 07:20:51;;;;;;;;;22.50;18.75;;;;;19.59;49.00;101281.00;5007833;28;45049;-64
2023/05/28 07:23:17;;;;;;;;;24.33;15.33;;;;;19.60;48.15;101277.41;5018519;28;45844;-64
2023/05/28 07:25:42;;;;;;;;;16.00;12.67;;;;;19.80;48.15;101296.34;5003762;28;48938;-69
2023/05/28 07:28:08;;;;;;;;;15.00;12.75;;;;;19.89;47.93;101292.72;5018337;28;46455;-65
2023/05/28 07:30:34;;;;;;;;;21.50;20.00;;;;;19.88;48.07;101277.34;5020824;28;45096;-64
2023/05/28 07:32:59;;;;;;;;;12.67;11.00;;;;;20.01;47.27;101281.81;4997274;28;45263;-62
2023/05/28 07:35:24;;;;;;;;;12.00;10.00;;;;;20.16;47.18;101297.13;5014831;28;46344;-65
2023/05/28 07:37:50;;;;;;;;;14.33;13.00;;;;;20.21;47.20;101286.22;5011344;28;44961;-64
2023/05/28 07:40:16;;;;;;;;;13.33;12.33;;;;;20.26;46.94;101287.16;5013113;28;45264;-64
2023/05/28 07:42:41;;;;;;;;;14.00;12.67;;;;;20.50;46.71;101291.50;5007344;28;45419;-64
2023/05/28 07:45:07;;;;;;;;;18.00;16.67;;;;;20.62;46.05;101296.88;5003506;28;45380;-66
2023/05/28 07:47:32;;;;;;;;;12.00;11.33;;;;;20.67;45.93;101288.72;5018201;28;45329;-63
2023/05/28 07:49:58;;;;;;;;;16.33;12.33;;;;;20.76;45.86;101291.38;5012511;28;45993;-65
2023/05/28 07:52:25;;;;;;;;;13.00;12.00;;;;;20.69;45.82;101264.28;5019915;28;45375;-65
2023/05/28 07:54:51;;;;;;;;;13.67;11.67;;;;;20.88;45.54;101278.63;4989222;28;46934;-66
2023/05/28 07:57:17;;;;;;;;;13.33;11.67;;;;;20.89;45.15;101267.75;5035918;28;45980;-71
2023/05/28 07:59:42;;;;;;;;;11.33;8.67;;;;;21.06;44.78;101283.91;5014844;28;45215;-66
2023/05/28 08:02:08;;;;;;;;;11.67;9.67;;;;;21.13;45.06;101282.94;5034834;28;45294;-66
2023/05/28 08:04:33;;;;;;;;;11.00;11.00;;;;;21.14;44.90;101273.88;4998578;28;45816;-67
2023/05/28 08:06:58;;;;;;;;;14.33;12.67;;;;;21.08;44.92;101257.63;4996292;28;45350;-65
2023/05/28 08:09:24;;;;;;;;;11.67;9.33;;;;;21.24;44.53;101271.09;5007853;28;45042;-72
2023/05/28 08:11:50;;;;;;;;;13.33;13.33;;;;;21.25;44.95;101273.78;5015004;28;47024;-72
2023/05/28 08:14:15;;;;;;;;;9.67;8.67;;;;;21.32;44.68;101269.19;5023024;28;45257;-70
2023/05/28 08:16:41;;;;;;;;;11.67;9.33;;;;;21.45;44.44;101275.38;4993347;28;45149;-69
2023/05/28 08:19:06;;;;;;;;;12.67;11.00;;;;;21.44;44.29;101257.28;5025947;28;47580;-72
2023/05/28 08:21:31;;;;;;;;;10.00;10.00;;;;;21.61;44.12;101268.00;5030775;28;45087;-67
2023/05/28 08:23:57;;;;;;;;;10.67;10.33;;;;;21.68;43.95;101264.31;5013099;28;47232;-70
2023/05/28 08:26:22;;;;;;;;;22.33;14.33;;;;;21.68;43.75;101264.31;5002411;28;45157;-68
2023/05/28 08:28:48;;;;;;;;;18.00;12.67;;;;;21.82;43.87;101270.47;5011210;28;45033;-66
2023/05/28 08:31:13;;;;;;;;;17.67;10.33;;;;;21.79;43.80;101261.47;5011662;28;45284;-67
2023/05/28 08:33:38;;;;;;;;;11.67;11.33;;;;;21.95;44.04;101275.78;5010330;28;45799;-71
2023/05/28 08:36:04;;;;;;;;;9.67;9.67;;;;;22.00;44.03;101263.91;5013095;28;45357;-67
2023/05/28 08:38:30;;;;;;;;;15.67;10.00;;;;;22.09;43.99;101263.81;5021630;28;45093;-69
2023/05/28 08:40:55;;;;;;;;;16.67;13.33;;;;;22.06;43.15;101257.50;5018780;28;45541;-67
2023/05/28 08:43:22;;;;;;;;;18.00;13.67;;;;;22.09;43.71;101247.47;5014898;28;45216;-64
2023/05/28 08:45:50;;;;;;;;;12.00;10.67;;;;;22.18;43.71;101246.44;5019505;28;45374;-64
2023/05/28 08:48:16;;;;;;;;;11.00;10.67;;;;;22.30;43.82;101250.84;5011098;28;45113;-66
2023/05/28 08:50:47;;;;;;;;;7.67;5.67;;;;;22.26;43.17;101224.56;4992893;28;45136;-64
2023/05/28 08:53:18;;;;;;;;;14.00;13.67;;;;;22.52;43.61;101251.47;5010186;28;45907;-64
2023/05/28 08:55:45;;;;;;;;;12.67;11.00;;;;;22.62;43.22;101246.78;5009121;28;45419;-64
2023/05/28 08:58:11;;;;;;;;;14.67;9.67;;;;;22.69;43.27;101244.84;5008387;28;45049;-67
2023/05/28 09:00:38;;;;;;;;;14.00;11.67;;;;;22.56;42.80;101206.00;5008899;28;44949;-66
2023/05/28 09:03:07;;;;;;;;;16.67;14.67;;;;;22.90;42.41;101236.31;4995686;28;46897;-67
2023/05/28 09:05:36;;;;;;;;;11.33;11.33;;;;;22.95;41.89;101226.25;5011294;28;45140;-65
2023/05/28 09:08:05;;;;;;;;;12.33;11.33;;;;;23.07;42.23;101230.59;5012376;28;45084;-67
2023/05/28 09:10:32;;;;;;;;;12.67;11.67;;;;;23.21;41.81;101235.78;5013402;28;44941;-64
2023/05/28 09:12:59;;;;;;;;;11.00;11.00;;;;;23.35;41.36;101225.53;5014163;28;45225;-63
2023/05/28 09:15:25;;;;;;;;;7.00;6.00;;;;;23.54;40.76;101237.00;5020933;28;44947;-66
2023/05/28 09:17:50;;;;;;;;;9.67;7.00;;;;;23.46;40.26;101208.97;5034586;28;45180;-71
2023/05/28 09:20:16;;;;;;;;;9.50;8.00;;;;;23.66;40.40;101237.66;5019651;28;45345;-65
2023/05/28 09:22:43;;;;;;;;;9.67;9.00;;;;;23.70;40.09;101228.50;5014390;28;45785;-70
2023/05/28 09:25:09;;;;;;;;;11.00;8.33;;;;;23.78;40.37;101231.97;4996429;28;45077;-64
2023/05/28 09:27:37;;;;;;;;;9.67;8.00;;;;;23.67;39.78;101204.88;5009864;28;45170;-66
2023/05/28 09:30:13;;;;;;;;;11.33;7.33;;;;;23.69;40.08;101205.78;5038726;22;45372;-61
2023/05/28 09:32:38;;;;;;;;;16.00;13.33;;;;;23.71;39.35;101194.84;5033990;28;45579;-60
2023/05/28 09:35:07;;;;;;;;;12.33;11.00;;;;;23.88;39.31;101219.94;5033044;28;45193;-62
2023/05/28 09:37:34;;;;;;;;;8.33;7.67;;;;;23.98;39.14;101217.94;5031412;28;45155;-62
2023/05/28 09:40:04;;;;;;;;;8.00;7.00;;;;;24.01;39.51;101219.72;5034526;28;45172;-62
2023/05/28 09:42:39;;;;;;;;;14.67;10.33;;;;;24.12;39.29;101234.00;5033930;28;45177;-62
2023/05/28 09:45:05;;;;;;;;;8.33;8.00;;;;;24.08;38.43;101203.13;5033664;28;45093;-61
2023/05/28 09:47:30;;;;;;;;;11.00;8.33;;;;;24.15;38.29;101216.66;5032960;28;45053;-63
2023/05/28 09:49:56;;;;;;;;;11.33;9.67;;;;;24.18;38.18;101194.75;5033975;28;45204;-62
2023/05/28 09:52:22;;;;;;;;;10.33;9.00;;;;;24.33;38.27;101216.22;5025650;28;46179;-62
2023/05/28 09:54:53;;;;;;;;;13.00;12.00;;;;;24.19;37.92;101175.59;5033594;28;45235;-62
2023/05/28 09:57:25;;;;;;;;;12.00;8.00;;;;;24.42;37.68;101216.03;5016298;28;45059;-62
2023/05/28 09:59:54;;;;;;;;;13.67;11.67;;;;;24.45;37.98;101210.50;5034090;28;44951;-62
2023/05/28 10:02:57;;;;;;;;;17.67;10.33;;;;;24.50;37.85;101213.13;5033997;28;46161;-61
2023/05/28 10:05:26;;;;;;;;;8.00;8.00;;;;;24.53;37.13;101207.56;5035034;28;44980;-63
2023/05/28 10:07:53;;;;;;;;;9.00;9.00;;;;;24.59;37.45;101210.19;5034184;28;44909;-62
2023/05/28 10:10:20;;;;;;;;;7.33;6.67;;;;;24.50;36.61;101182.16;5022329;28;44964;-62
2023/05/28 10:12:47;;;;;;;;;9.00;8.00;;;;;24.71;36.76;101211.69;4994369;28;47839;-63
2023/05/28 10:15:13;;;;;;;;;12.67;11.33;;;;;24.75;36.99;101202.50;5014558;28;45006;-64
2023/05/28 10:17:39;;;;;;;;;16.67;16.33;;;;;24.79;37.06;101203.31;5013738;28;45097;-62
2023/05/28 10:20:05;;;;;;;;;14.67;14.67;;;;;24.86;36.34;101190.41;5014709;28;45074;-63
2023/05/28 10:22:32;;;;;;;;;10.00;9.00;;;;;24.86;36.54;101196.75;5013407;28;45607;-63
2023/05/28 10:25:00;;;;;;;;;9.00;8.67;;;;;24.88;36.06;101197.63;5013497;28;45228;-61
2023/05/28 10:27:31;;;;;;;;;8.67;6.00;;;;;24.87;36.35;101195.81;5019117;28;45167;-61
2023/05/28 10:29:56;;;;;;;;;8.00;7.33;;;;;24.92;36.24;101201.19;5031515;28;45155;-61
2023/05/28 10:32:21;;;;;;;;;8.67;8.67;;;;;24.79;36.03;101162.34;5014447;28;46963;-61
2023/05/28 10:34:47;;;;;;;;;9.00;8.00;;;;;24.91;35.96;101191.16;5032968;28;45078;-62
2023/05/28 10:37:22;;;;;;;;;10.33;6.00;;;;;24.88;35.29;101183.03;5029687;28;45155;-62
2023/05/28 10:39:47;;;;;;;;;10.67;7.00;;;;;24.93;35.25;101184.75;5022310;28;44983;-63
2023/05/28 10:42:15;;;;;;;;;7.33;6.67;;;;;24.93;35.84;101183.81;5009836;28;45759;-62
2023/05/28 10:44:59;;;;;;;;;9.33;6.67;;;;;24.98;35.72;101190.09;5028402;28;45613;-63
2023/05/28 10:47:57;;;;;;;;;7.67;6.33;;;;;25.01;35.27;101179.97;5013841;28;45010;-64
2023/05/28 10:50:23;;;;;;;;;7.33;5.00;;;;;25.06;33.63;101170.72;5009209;28;44962;-63
2023/05/28 10:53:08;;;;;;;;;7.33;6.00;;;;;25.04;32.68;101158.94;5015891;28;47536;-60
2023/05/28 10:55:54;;;;;;;;;6.00;5.00;;;;;25.12;33.00;101174.19;5020639;28;45239;-61
2023/05/28 10:58:30;;;;;;;;;8.67;6.67;;;;;25.11;32.47;101169.69;5030174;28;45113;-62
2023/05/28 11:01:04;;;;;;;;;10.00;6.00;;;;;25.12;32.65;101162.38;5031568;28;45113;-61
2023/05/28 11:03:41;;;;;;;;;7.00;7.00;;;;;25.13;31.98;101176.00;5031964;28;45739;-61
2023/05/28 11:06:07;;;;;;;;;9.33;8.00;;;;;24.81;31.63;101103.06;5031856;28;45081;-62
2023/05/28 11:08:41;;;;;;;;;6.33;5.00;;;;;25.27;30.97;101181.09;5013141;28;45064;-63
2023/05/28 11:11:06;;;;;;;;;7.33;5.33;;;;;25.30;31.01;101180.13;5032495;28;44936;-63
2023/05/28 11:13:33;;;;;;;;;5.00;5.00;;;;;25.26;31.57;101170.16;5031811;28;46487;-64